Time;durP1;ratioP1;P1;durP2;ratioP2;P2;SDS_P1;SDS_P2;PMS_P1;PMS_P2;Temp;Humidity;BMP_temperature;BMP_pressure;BME280_temperature;BME280_humidity;BME280_pressure;Samples;Min_cycle;Max_cycle;Signal;HPM_P1;HPM_P2
2022/06/29 00:00:50;;;;;;;3.50;3.20;;;;;;;17.12;100.00;96237.56;4962898;28;20319;-77
2022/06/29 00:03:17;;;;;;;3.60;3.30;;;;;;;17.09;100.00;96229.13;4960655;28;20215;-77
2022/06/29 00:05:44;;;;;;;3.30;3.00;;;;;;;17.11;100.00;96233.19;4968054;28;20201;-77
2022/06/29 00:08:11;;;;;;;7.20;3.40;;;;;;;17.11;100.00;96227.72;4945334;28;20204;-77
2022/06/29 00:10:40;;;;;;;4.10;3.20;;;;;;;17.11;100.00;96230.47;4948122;28;20282;-77
2022/06/29 00:13:08;;;;;;;3.87;3.50;;;;;;;17.07;100.00;96215.75;4947327;28;20213;-77
2022/06/29 00:15:35;;;;;;;6.17;4.00;;;;;;;17.10;100.00;96217.13;4949545;28;20225;-77
2022/06/29 00:18:02;;;;;;;5.10;3.90;;;;;;;17.07;100.00;96221.19;4951434;28;20197;-77
2022/06/29 00:20:29;;;;;;;4.03;3.63;;;;;;;17.01;100.00;96208.66;4949188;28;20217;-77
2022/06/29 00:22:56;;;;;;;3.50;3.20;;;;;;;17.08;100.00;96224.75;4949082;28;20214;-76
2022/06/29 00:25:23;;;;;;;6.27;3.20;;;;;;;17.01;100.00;96227.75;4963849;28;20290;-77
2022/06/29 00:27:52;;;;;;;4.17;3.27;;;;;;;17.02;100.00;96222.00;4964682;28;20218;-76
2022/06/29 00:30:19;;;;;;;3.20;2.90;;;;;;;16.99;100.00;96219.03;4955919;28;20218;-77
2022/06/29 00:32:46;;;;;;;5.07;3.47;;;;;;;16.96;100.00;96225.00;4961881;28;20206;-77
2022/06/29 00:35:13;;;;;;;4.57;3.37;;;;;;;16.93;100.00;96214.66;4941917;28;20263;-77
2022/06/29 00:37:40;;;;;;;5.60;3.20;;;;;;;16.93;100.00;96209.19;4945876;28;20296;-77
2022/06/29 00:40:08;;;;;;;3.50;3.20;;;;;;;16.89;100.00;96214.38;4959219;28;20209;-76
2022/06/29 00:42:35;;;;;;;6.60;4.13;;;;;;;16.85;100.00;96220.66;4958336;28;20206;-77
2022/06/29 00:45:04;;;;;;;3.23;2.90;;;;;;;16.81;100.00;96220.41;4949249;28;20205;-76
2022/06/29 00:47:32;;;;;;;4.63;3.60;;;;;;;16.71;100.00;96223.09;4963001;28;20212;-77
2022/06/29 00:49:59;;;;;;;5.07;3.43;;;;;;;16.57;100.00;96222.00;4965432;28;20212;-77
2022/06/29 00:52:27;;;;;;;5.73;3.50;;;;;;;16.56;100.00;96220.34;4934748;28;20205;-76
2022/06/29 00:54:56;;;;;;;5.23;3.70;;;;;;;16.59;100.00;96217.88;4959997;28;20205;-77
2022/06/29 00:57:24;;;;;;;5.27;3.30;;;;;;;16.63;100.00;96210.84;4956934;28;20317;-77
2022/06/29 00:59:55;;;;;;;3.80;3.40;;;;;;;16.64;100.00;96212.47;4954193;28;20204;-77
2022/06/29 01:02:28;;;;;;;4.27;3.47;;;;;;;16.61;100.00;96207.56;4963787;28;20227;-77
2022/06/29 01:04:56;;;;;;;4.03;3.30;;;;;;;16.58;100.00;96201.81;4950799;28;20208;-77
2022/06/29 01:07:25;;;;;;;4.03;3.70;;;;;;;16.54;100.00;96198.00;4952917;28;20209;-77
2022/06/29 01:09:52;;;;;;;7.50;3.63;;;;;;;16.53;100.00;96204.53;4954724;28;20213;-77
2022/06/29 01:12:19;;;;;;;5.70;3.83;;;;;;;16.58;100.00;96190.91;4957168;28;20208;-77
2022/06/29 01:14:49;;;;;;;6.20;4.30;;;;;;;16.56;100.00;96188.47;4968519;28;20233;-76
2022/06/29 01:17:16;;;;;;;5.97;3.77;;;;;;;16.57;100.00;96187.38;4950703;28;20256;-77
2022/06/29 01:19:45;;;;;;;6.57;3.80;;;;;;;16.58;100.00;96188.19;4953516;28;20205;-77
2022/06/29 01:22:15;;;;;;;4.33;3.93;;;;;;;16.54;100.00;96189.81;4958582;28;20233;-77
2022/06/29 01:24:44;;;;;;;5.00;3.90;;;;;;;16.56;100.00;96187.63;4945193;28;20209;-77
2022/06/29 01:27:12;;;;;;;3.83;3.50;;;;;;;16.51;100.00;96187.63;4959828;28;20220;-77
2022/06/29 01:29:39;;;;;;;4.83;4.20;;;;;;;16.54;100.00;96190.63;4945344;28;20201;-77
2022/06/29 01:32:08;;;;;;;4.53;3.90;;;;;;;16.57;100.00;96184.66;4944250;28;20213;-77
2022/06/29 01:34:36;;;;;;;4.47;3.90;;;;;;;16.55;100.00;96180.53;4966830;28;20201;-77
2022/06/29 01:37:05;;;;;;;4.40;4.00;;;;;;;16.49;100.00;96174.28;4951250;28;20211;-77
2022/06/29 01:39:35;;;;;;;5.47;3.80;;;;;;;16.49;100.00;96176.19;4951904;28;20221;-77
2022/06/29 01:42:03;;;;;;;3.50;3.20;;;;;;;16.45;100.00;96177.81;4950122;28;20295;-76
2022/06/29 01:44:30;;;;;;;8.73;3.47;;;;;;;16.53;100.00;96190.91;4965221;28;20209;-77
2022/06/29 01:46:57;;;;;;;5.67;3.47;;;;;;;16.53;100.00;96178.09;4957648;28;20217;-77
2022/06/29 01:49:25;;;;;;;3.60;3.30;;;;;;;16.51;100.00;96180.25;4965024;28;20216;-77
2022/06/29 01:51:52;;;;;;;5.57;3.77;;;;;;;16.53;100.00;96188.16;4966758;28;20216;-77
2022/06/29 01:54:20;;;;;;;5.93;3.80;;;;;;;16.59;100.00;96193.34;4948321;28;20216;-77
2022/06/29 01:56:49;;;;;;;4.20;3.80;;;;;;;16.58;100.00;96180.84;4948353;28;20225;-77
2022/06/29 01:59:16;;;;;;;5.17;3.70;;;;;;;16.59;100.00;96182.44;4953518;28;20256;-77
2022/06/29 02:01:45;;;;;;;5.97;3.70;;;;;;;16.62;100.00;96181.94;4948343;28;20284;-77
2022/06/29 02:04:12;;;;;;;4.80;3.60;;;;;;;16.62;100.00;96181.94;4962068;28;20202;-77
2022/06/29 02:06:39;;;;;;;5.40;3.47;;;;;;;16.54;100.00;96182.44;4960257;28;20208;-76
2022/06/29 02:09:06;;;;;;;5.87;4.00;;;;;;;16.51;100.00;96174.00;4950051;28;20279;-77
2022/06/29 02:11:33;;;;;;;3.47;3.13;;;;;;;16.50;100.00;96173.16;4951131;28;20208;-77
2022/06/29 02:14:02;;;;;;;5.07;3.60;;;;;;;16.53;100.00;96172.63;4965518;28;20217;-77
2022/06/29 02:16:29;;;;;;;5.00;3.23;;;;;;;16.51;100.00;96169.34;4965628;28;20216;-76
2022/06/29 02:18:56;;;;;;;4.60;3.63;;;;;;;16.49;100.00;96165.28;4952016;28;20241;-77
2022/06/29 02:21:24;;;;;;;5.93;3.60;;;;;;;16.56;100.00;96166.66;4952465;28;20224;-77
2022/06/29 02:23:51;;;;;;;6.10;3.50;;;;;;;16.57;100.00;96162.84;4943784;28;20222;-77
2022/06/29 02:26:18;;;;;;;3.97;3.50;;;;;;;16.59;100.00;96168.00;4948261;28;20306;-77
2022/06/29 02:28:45;;;;;;;6.73;3.53;;;;;;;16.53;100.00;96169.91;4961860;28;20201;-76
2022/06/29 02:36:42;;;;;;;6.07;3.77;;;;;;;16.44;100.00;96166.09;4933469;28;20197;-77
2022/06/29 02:39:08;;;;;;;3.80;3.40;;;;;;;16.43;100.00;96159.00;4951403;28;20216;-77
2022/06/29 02:41:36;;;;;;;4.10;3.70;;;;;;;16.48;100.00;96164.47;4949601;28;20217;-77
2022/06/29 02:44:03;;;;;;;4.20;3.57;;;;;;;16.51;100.00;96163.09;4950202;28;20205;-77
2022/06/29 02:46:31;;;;;;;6.60;4.00;;;;;;;16.50;100.00;96161.47;4962232;28;20279;-77
2022/06/29 02:48:58;;;;;;;7.07;3.70;;;;;;;16.46;100.00;96163.09;4954380;28;20209;-77
2022/06/29 02:51:25;;;;;;;4.30;3.53;;;;;;;16.46;100.00;96165.81;4945382;28;20298;-77
2022/06/29 02:53:52;;;;;;;4.63;3.67;;;;;;;16.45;100.00;96159.56;4958520;28;20196;-77
2022/06/29 02:56:19;;;;;;;7.20;3.80;;;;;;;16.49;100.00;96155.22;4948774;28;20335;-77
2022/06/29 02:58:46;;;;;;;5.03;3.63;;;;;;;16.48;100.00;96150.84;4961722;28;20249;-77
2022/06/29 03:01:13;;;;;;;3.77;3.47;;;;;;;16.50;100.00;96151.38;4950077;28;20323;-77
2022/06/29 03:03:42;;;;;;;3.83;3.53;;;;;;;16.49;100.00;96148.94;4946003;28;20209;-77
2022/06/29 03:06:09;;;;;;;4.80;3.80;;;;;;;16.44;100.00;96146.19;4964242;28;20209;-76
2022/06/29 03:08:36;;;;;;;3.70;3.23;;;;;;;16.41;100.00;96141.31;4951596;28;20243;-76
2022/06/29 03:11:03;;;;;;;5.03;3.70;;;;;;;16.37;100.00;96138.28;4962939;28;20217;-76
2022/06/29 03:13:31;;;;;;;5.60;3.43;;;;;;;16.37;100.00;96135.56;4945474;28;20201;-76
2022/06/29 03:15:58;;;;;;;4.13;3.43;;;;;;;16.41;100.00;96142.13;4944318;28;20341;-77
2022/06/29 03:18:26;;;;;;;6.17;3.33;;;;;;;16.39;100.00;96147.03;4948452;28;20209;-77
2022/06/29 03:20:55;;;;;;;5.10;4.50;;;;;;;16.42;100.00;96142.91;4948477;28;20197;-77
2022/06/29 03:23:22;;;;;;;6.50;3.70;;;;;;;16.43;100.00;96144.56;4966760;28;20221;-76
2022/06/29 03:25:49;;;;;;;7.23;3.60;;;;;;;16.40;100.00;96140.50;4967523;28;20205;-76
2022/06/29 03:28:16;;;;;;;4.90;3.27;;;;;;;16.40;100.00;96136.94;4950308;28;20224;-77
2022/06/29 03:30:43;;;;;;;3.77;3.30;;;;;;;16.35;100.00;96136.91;4946140;28;20200;-77
2022/06/29 03:33:10;;;;;;;6.97;3.53;;;;;;;16.37;100.00;96140.19;4956313;28;20339;-76
2022/06/29 03:35:37;;;;;;;5.33;3.20;;;;;;;16.29;100.00;96136.13;4947925;28;20215;-77
2022/06/29 03:38:06;;;;;;;4.23;3.37;;;;;;;16.28;100.00;96138.00;4966562;28;20217;-77
2022/06/29 03:40:33;;;;;;;4.20;3.20;;;;;;;16.30;100.00;96135.03;4958254;28;20217;-77
2022/06/29 03:43:01;;;;;;;7.67;3.70;;;;;;;16.33;100.00;96131.78;4960890;28;20316;-76
2022/06/29 03:45:28;;;;;;;8.00;3.53;;;;;;;16.29;100.00;96127.94;4962443;28;20213;-76
2022/06/29 03:47:56;;;;;;;5.10;3.30;;;;;;;16.26;100.00;96129.28;4940936;28;20213;-76
2022/06/29 03:50:23;;;;;;;5.73;3.30;;;;;;;16.29;100.00;96136.13;4945562;28;20219;-77
2022/06/29 03:52:50;;;;;;;4.83;3.30;;;;;;;16.33;100.00;96126.31;4952562;28;20226;-76
2022/06/29 03:55:19;;;;;;;6.93;3.30;;;;;;;16.32;100.00;96126.59;4951701;28;20257;-77
2022/06/29 03:57:46;;;;;;;4.00;2.93;;;;;;;16.32;100.00;96121.97;4943066;28;20237;-77
2022/06/29 04:00:13;;;;;;;5.27;3.20;;;;;;;16.37;100.00;96129.31;4946129;28;20219;-76
2022/06/29 04:02:41;;;;;;;4.03;2.80;;;;;;;16.38;100.00;96117.31;4961567;28;20231;-77
2022/06/29 04:05:09;;;;;;;4.53;3.00;;;;;;;16.42;100.00;96126.56;4951394;28;20209;-76
2022/06/29 04:07:36;;;;;;;8.57;3.43;;;;;;;16.42;100.00;96123.84;4952836;28;20201;-76
2022/06/29 04:10:04;;;;;;;5.97;3.10;;;;;;;16.40;100.00;96126.88;4940090;28;20212;-76
2022/06/29 04:12:37;;;;;;;4.37;3.23;;;;;;;16.46;100.00;96133.94;4964501;28;20264;-77
2022/06/29 04:15:06;;;;;;;7.70;2.80;;;;;;;16.50;100.00;96137.75;4965326;28;20213;-76
2022/06/29 04:17:33;;;;;;;5.60;2.70;;;;;;;16.44;100.00;96136.13;4947569;28;20213;-77
2022/06/29 04:20:00;;;;;;;7.37;2.90;;;;;;;16.42;100.00;96132.84;4961689;28;20212;-77
2022/06/29 04:22:27;;;;;;;5.43;3.50;;;;;;;16.40;100.00;96132.31;4964097;28;20220;-77
2022/06/29 04:24:54;;;;;;;3.53;3.23;;;;;;;16.47;100.00;96124.69;4940385;28;20206;-77
2022/06/29 04:27:21;;;;;;;7.13;3.60;;;;;;;16.50;100.00;96129.56;4965190;28;20275;-77
2022/06/29 04:29:50;;;;;;;8.23;3.30;;;;;;;16.59;100.00;96138.81;4941399;28;20219;-77
2022/06/29 04:32:17;;;;;;;2.87;2.67;;;;;;;16.58;100.00;96137.22;4960104;28;20296;-76
2022/06/29 04:34:44;;;;;;;4.17;3.33;;;;;;;16.55;100.00;96132.31;4938247;28;20216;-76
2022/06/29 04:37:11;;;;;;;8.40;3.53;;;;;;;16.47;100.00;96127.41;4960624;28;20193;-77
2022/06/29 04:39:38;;;;;;;6.40;3.13;;;;;;;16.42;100.00;96121.13;4961965;28;20209;-76
2022/06/29 04:42:06;;;;;;;8.20;2.97;;;;;;;16.45;100.00;96124.13;4964853;28;20228;-77
2022/06/29 04:44:33;;;;;;;6.93;3.00;;;;;;;16.45;100.00;96131.47;4948576;28;20253;-77
2022/06/29 04:47:01;;;;;;;4.77;3.00;;;;;;;16.38;100.00;96120.03;4962654;28;20205;-77
2022/06/29 04:49:28;;;;;;;3.70;3.17;;;;;;;16.40;100.00;96131.50;4946213;28;20196;-76
2022/06/29 04:51:56;;;;;;;4.47;3.10;;;;;;;16.37;100.00;96132.03;4950715;28;20198;-77
2022/06/29 04:54:23;;;;;;;4.63;2.77;;;;;;;16.27;100.00;96130.09;4946448;28;20201;-77
2022/06/29 04:56:51;;;;;;;8.03;3.37;;;;;;;16.27;100.00;96130.09;4945804;28;20332;-77
2022/06/29 04:59:19;;;;;;;5.53;3.30;;;;;;;16.23;100.00;96121.69;4956809;28;20205;-77
2022/06/29 05:01:50;;;;;;;6.60;3.20;;;;;;;16.27;100.00;96132.84;4946741;28;20220;-77
2022/06/29 05:04:18;;;;;;;4.47;3.20;;;;;;;16.28;100.00;96120.84;4961631;28;20216;-77
2022/06/29 05:06:45;;;;;;;4.50;3.30;;;;;;;16.35;100.00;96126.84;4942538;28;20295;-77
2022/06/29 05:09:12;;;;;;;2.90;2.60;;;;;;;16.38;100.00;96117.31;4948076;28;20282;-77
2022/06/29 05:11:39;;;;;;;7.63;2.77;;;;;;;16.36;100.00;96112.13;4959697;28;20295;-77
2022/06/29 05:14:07;;;;;;;3.37;2.70;;;;;;;16.38;100.00;96120.84;4940064;28;20308;-76
2022/06/29 05:16:34;;;;;;;5.10;2.80;;;;;;;16.39;100.00;96122.50;4939149;28;20213;-76
2022/06/29 05:19:01;;;;;;;3.40;2.63;;;;;;;16.39;100.00;96122.50;4948477;28;20210;-76
2022/06/29 05:21:30;;;;;;;9.57;7.27;;;;;;;16.37;100.00;96123.84;4949316;28;20224;-76
2022/06/29 05:23:58;;;;;;;4.73;2.83;;;;;;;16.30;100.00;96126.03;4946750;28;20296;-77
2022/06/29 05:26:25;;;;;;;4.07;2.77;;;;;;;16.30;100.00;96121.41;4958798;28;20205;-77
2022/06/29 05:28:52;;;;;;;3.83;3.30;;;;;;;16.28;100.00;96126.31;4943168;28;20203;-76
2022/06/29 05:31:19;;;;;;;7.53;4.97;;;;;;;16.25;100.00;96124.09;4959668;28;20297;-77
2022/06/29 05:33:46;;;;;;;4.13;3.20;;;;;;;16.22;100.00;96128.22;4947398;28;20201;-77
2022/06/29 05:36:13;;;;;;;4.70;3.40;;;;;;;16.19;100.00;96117.03;4950338;28;20515;-77
2022/06/29 05:38:42;;;;;;;6.17;3.60;;;;;;;16.24;100.00;96117.06;4946509;28;20219;-77
2022/06/29 05:41:09;;;;;;;6.83;4.23;;;;;;;16.27;100.00;96119.22;4960887;28;20251;-77
2022/06/29 05:43:36;;;;;;;5.03;2.73;;;;;;;16.18;100.00;96115.38;4947884;28;20225;-76
2022/06/29 05:46:03;;;;;;;6.03;3.47;;;;;;;16.12;100.00;96114.56;4946294;28;20213;-77
2022/06/29 05:48:30;;;;;;;4.00;3.10;;;;;;;16.14;100.00;96115.13;4943265;28;20208;-76
2022/06/29 05:50:57;;;;;;;4.70;3.20;;;;;;;16.18;100.00;96121.66;4963863;28;20237;-77
2022/06/29 05:53:24;;;;;;;6.80;2.90;;;;;;;16.20;100.00;96124.94;4965292;28;20228;-77
2022/06/29 05:55:54;;;;;;;5.50;2.97;;;;;;;16.22;100.00;96113.78;4964934;28;20225;-77
2022/06/29 05:58:22;;;;;;;6.47;2.80;;;;;;;16.20;100.00;96118.66;4948731;28;20372;-77
2022/06/29 06:00:49;;;;;;;5.03;2.90;;;;;;;16.26;100.00;96123.03;4945841;28;20287;-77
2022/06/29 06:03:17;;;;;;;5.67;3.03;;;;;;;16.30;100.00;96120.59;4968559;28;20225;-76
2022/06/29 06:05:44;;;;;;;3.13;2.80;;;;;;;16.28;100.00;96120.84;4967954;28;20213;-77
2022/06/29 06:08:13;;;;;;;4.60;2.90;;;;;;;16.19;100.00;96111.56;4951394;28;20201;-76
2022/06/29 06:10:40;;;;;;;4.13;3.13;;;;;;;16.19;100.00;96117.03;4960165;28;20216;-76
2022/06/29 06:13:09;;;;;;;3.93;3.10;;;;;;;16.20;100.00;96124.13;4969768;28;20224;-76
2022/06/29 06:15:36;;;;;;;3.80;2.87;;;;;;;16.20;100.00;96124.13;4952940;28;20220;-76
2022/06/29 06:18:03;;;;;;;5.83;3.07;;;;;;;16.23;100.00;96126.31;4956541;28;20219;-75
2022/06/29 06:20:31;;;;;;;4.33;2.77;;;;;;;16.24;100.00;96117.06;4963803;28;20219;-76
2022/06/29 06:22:58;;;;;;;6.67;3.27;;;;;;;16.32;100.00;96121.97;4951149;28;20247;-76
2022/06/29 06:25:25;;;;;;;5.47;3.23;;;;;;;16.36;100.00;96123.03;4949078;28;20224;-76
2022/06/29 06:27:52;;;;;;;4.43;3.20;;;;;;;16.37;100.00;96124.66;4950268;28;20207;-76
2022/06/29 06:30:21;;;;;;;7.83;3.63;;;;;;;16.39;100.00;96125.22;4947219;28;20227;-76
2022/06/29 06:32:48;;;;;;;6.70;3.10;;;;;;;16.43;100.00;96123.56;4948085;28;20209;-76
2022/06/29 06:35:15;;;;;;;3.43;2.80;;;;;;;16.49;100.00;96127.13;4951284;28;20209;-76
2022/06/29 06:37:43;;;;;;;4.53;3.07;;;;;;;16.55;100.00;96126.03;4948975;28;20217;-76
2022/06/29 06:42:56;;;;;;;6.33;3.03;;;;;;;16.63;100.00;96129.06;4959131;28;20585;-76
2022/06/29 06:45:24;;;;;;;3.80;2.77;;;;;;;16.64;100.00;96119.78;4942905;28;20205;-76
2022/06/29 06:47:51;;;;;;;4.43;2.90;;;;;;;16.62;100.00;96130.16;4948316;28;20312;-76
2022/06/29 06:50:18;;;;;;;5.50;2.87;;;;;;;16.61;100.00;96127.69;4965775;28;20231;-76
2022/06/29 06:52:46;;;;;;;4.60;3.07;;;;;;;16.63;100.00;96130.97;4946449;28;20264;-76
2022/06/29 06:55:14;;;;;;;3.83;3.03;;;;;;;16.68;100.00;96130.13;4941127;28;20209;-76
2022/06/29 06:57:42;;;;;;;3.10;2.80;;;;;;;16.66;100.00;96132.34;4947630;28;20292;-76
2022/06/29 07:00:10;;;;;;;5.40;3.50;;;;;;;16.71;100.00;96135.03;4938332;28;20224;-76
2022/06/29 07:02:40;;;;;;;5.63;3.43;;;;;;;16.68;100.00;96130.13;4958360;28;20307;-76
2022/06/29 07:05:08;;;;;;;7.13;3.63;;;;;;;16.72;100.00;96126.59;4943545;28;20209;-76
2022/06/29 07:07:35;;;;;;;6.00;3.67;;;;;;;16.77;100.00;96136.66;4962196;28;20208;-77
2022/06/29 07:10:02;;;;;;;6.17;3.27;;;;;;;16.82;100.00;96133.97;4945041;28;20209;-77
2022/06/29 07:12:29;;;;;;;5.20;3.77;;;;;;;16.91;100.00;96135.03;4964021;28;20554;-76
2022/06/29 07:14:56;;;;;;;6.10;3.23;;;;;;;16.94;100.00;96129.00;4944265;28;20304;-75
2022/06/29 07:17:24;;;;;;;4.97;3.07;;;;;;;17.06;100.00;96126.81;4962830;28;20307;-75
2022/06/29 07:19:52;;;;;;;3.97;3.07;;;;;;;17.35;100.00;96124.28;4961658;28;20197;-75
2022/06/29 07:22:19;;;;;;;5.27;3.10;;;;;;;17.75;100.00;96128.78;4951222;28;20224;-75
2022/06/29 07:24:46;;;;;;;3.93;3.00;;;;;;;18.10;100.00;96120.38;4942125;28;20224;-75
2022/06/29 07:27:14;;;;;;;3.20;2.60;;;;;;;18.45;100.00;96121.22;4949899;28;20219;-75
2022/06/29 07:29:41;;;;;;;5.10;2.80;;;;;;;18.86;100.00;96127.19;4940486;28;20223;-76
2022/06/29 07:32:09;;;;;;;3.30;2.50;;;;;;;19.30;100.00;96118.81;4954424;28;20292;-75
2022/06/29 07:34:36;;;;;;;2.70;2.50;;;;;;;19.71;100.00;96112.84;4958204;28;20213;-75
2022/06/29 07:37:05;;;;;;;5.55;2.63;;;;;;;20.14;100.00;96116.38;4957204;28;20355;-76
2022/06/29 07:39:32;;;;;;;6.45;2.90;;;;;;;20.54;100.00;96115.78;4955658;28;20219;-75
2022/06/29 07:41:59;;;;;;;3.88;2.40;;;;;;;20.56;100.00;96116.28;4949071;28;20224;-76
2022/06/29 07:44:26;;;;;;;3.55;2.78;;;;;;;20.75;100.00;96119.00;4945434;28;20354;-76
2022/06/29 07:46:53;;;;;;;5.68;3.15;;;;;;;20.80;100.00;96116.16;4939186;28;20209;-76
2022/06/29 07:49:20;;;;;;;6.75;2.70;;;;;;;20.75;100.00;96110.78;4950370;28;20277;-76
2022/06/29 07:51:48;;;;;;;3.85;2.65;;;;;;;21.10;100.00;96109.28;4941013;29;20207;-75
2022/06/29 07:54:17;;;;;;;2.92;2.65;;;;;;;21.44;100.00;96096.03;4946836;28;20212;-76
2022/06/29 07:56:44;;;;;;;5.63;2.60;;;;;;;21.59;99.63;96105.09;4945252;29;20232;-76
2022/06/29 07:59:11;;;;;;;3.35;2.30;;;;;;;21.69;94.59;96093.91;4961711;28;20236;-76
2022/06/29 08:01:38;;;;;;;3.55;2.75;;;;;;;21.77;97.59;96110.50;4946094;28;20209;-76
2022/06/29 08:04:05;;;;;;;2.40;2.20;;;;;;;22.05;95.83;96107.69;4942226;28;20241;-76
2022/06/29 08:06:33;;;;;;;3.80;2.75;;;;;;;22.31;93.82;96105.19;4942432;28;20219;-76
2022/06/29 08:09:02;;;;;;;4.72;2.67;;;;;;;22.50;90.51;96103.91;4962854;28;20200;-76
2022/06/29 08:11:30;;;;;;;4.07;2.47;;;;;;;22.82;88.80;96110.31;4944002;29;20206;-75
2022/06/29 08:13:57;;;;;;;4.43;2.85;;;;;;;23.08;84.63;96114.03;4946449;28;20201;-75
2022/06/29 08:16:24;;;;;;;3.13;2.50;;;;;;;23.21;85.05;96099.38;4948365;28;20208;-75
2022/06/29 08:18:51;;;;;;;5.47;2.80;;;;;;;23.31;83.34;96101.00;4948064;28;20213;-75
2022/06/29 08:21:19;;;;;;;9.07;3.95;;;;;;;23.42;84.83;96110.63;4953704;28;20232;-75
2022/06/29 08:23:47;;;;;;;6.53;3.50;;;;;;;23.53;83.04;96092.72;4955542;28;20237;-75
2022/06/29 08:26:14;;;;;;;5.80;3.53;;;;;;;23.58;81.86;96095.31;4946507;28;20226;-75
2022/06/29 08:28:43;;;;;;;6.03;3.97;;;;;;;23.61;81.54;96091.13;4963013;28;20300;-75
2022/06/29 08:31:10;;;;;;;6.65;4.05;;;;;;;23.77;82.05;96092.31;4944859;28;20300;-75
2022/06/29 08:33:37;;;;;;;5.75;3.60;;;;;;;23.78;80.42;96082.91;4954839;28;20206;-76
2022/06/29 08:36:04;;;;;;;6.55;3.47;;;;;;;23.90;80.62;96083.09;4950982;28;20268;-76
2022/06/29 08:38:31;;;;;;;5.95;3.30;;;;;;;23.91;82.56;96081.13;4955150;28;20206;-75
2022/06/29 08:40:59;;;;;;;8.77;3.63;;;;;;;23.92;80.59;96080.81;4947246;28;20213;-75
2022/06/29 08:43:27;;;;;;;5.90;3.78;;;;;;;23.75;77.47;96069.75;4956107;28;20307;-76
2022/06/29 08:45:56;;;;;;;8.55;4.97;;;;;;;24.00;80.31;96080.00;4943859;28;20265;-75
2022/06/29 08:48:23;;;;;;;9.00;4.65;;;;;;;24.13;77.11;96081.81;4947886;28;20224;-76
2022/06/29 08:50:52;;;;;;;7.03;4.20;;;;;;;24.23;78.25;96077.97;4936359;28;20296;-76
2022/06/29 08:53:20;;;;;;;3.60;2.97;;;;;;;24.22;76.94;96075.53;4952977;28;20219;-75
2022/06/29 08:55:49;;;;;;;4.32;2.20;;;;;;;24.43;75.86;96073.72;4947040;28;20232;-75
2022/06/29 08:58:20;;;;;;;3.83;2.60;;;;;;;24.54;75.91;96061.25;4957244;28;20379;-75
2022/06/29 09:00:49;;;;;;;4.75;2.38;;;;;;;24.75;76.73;96072.44;4947242;28;20205;-76
2022/06/29 09:03:18;;;;;;;6.63;2.95;;;;;;;24.80;74.57;96070.28;4955463;28;20213;-76
2022/06/29 09:05:48;;;;;;;4.50;2.35;;;;;;;24.92;76.13;96068.84;4948959;28;20231;-75
2022/06/29 09:08:15;;;;;;;4.53;2.75;;;;;;;24.90;74.17;96063.63;4943681;28;20272;-76
2022/06/29 09:10:42;;;;;;;2.85;2.53;;;;;;;24.99;74.73;96058.91;4947061;28;20205;-75
2022/06/29 09:13:10;;;;;;;5.60;2.72;;;;;;;25.14;73.18;96060.31;4937105;28;20212;-76
2022/06/29 09:15:39;;;;;;;5.90;2.45;;;;;;;25.21;73.16;96066.16;4944211;28;20213;-76
2022/06/29 09:18:26;;;;;;;5.05;3.22;;;;;;;25.21;73.42;96061.44;4956155;28;20209;-75
2022/06/29 09:20:55;;;;;;;3.10;2.80;;;;;;;25.27;72.78;96064.81;4940193;28;20210;-76
2022/06/29 09:23:23;;;;;;;6.20;2.78;;;;;;;25.47;70.80;96063.28;4957763;28;20228;-76
2022/06/29 09:25:51;;;;;;;2.95;2.70;;;;;;;25.19;71.75;96072.00;4940117;28;20197;-75
2022/06/29 09:28:23;;;;;;;6.10;2.80;;;;;;;24.96;74.10;96062.31;4956249;28;20208;-76
2022/06/29 09:30:52;;;;;;;4.38;2.72;;;;;;;24.84;73.64;96065.72;4947797;28;20217;-74
2022/06/29 09:33:21;;;;;;;4.38;2.78;;;;;;;24.94;74.11;96056.31;4956987;28;20220;-76
2022/06/29 09:36:05;;;;;;;8.95;2.92;;;;;;;25.06;73.28;96056.47;4954957;28;20208;-75
2022/06/29 09:38:32;;;;;;;3.85;3.33;;;;;;;25.13;74.54;96061.47;4953221;28;20220;-76
2022/06/29 09:41:02;;;;;;;3.72;2.90;;;;;;;25.23;75.69;96059.16;4969806;28;20204;-75
2022/06/29 09:43:30;;;;;;;4.68;2.90;;;;;;;25.40;74.68;96055.50;4958006;28;20406;-75
2022/06/29 09:45:58;;;;;;;4.97;3.00;;;;;;;25.31;74.51;96051.97;4941994;28;20302;-76
2022/06/29 09:48:26;;;;;;;3.83;2.85;;;;;;;25.16;73.68;96049.75;4962708;28;20311;-76
2022/06/29 09:50:56;;;;;;;6.50;3.08;;;;;;;25.13;74.08;96050.41;4958452;28;20205;-76
2022/06/29 09:53:35;;;;;;;3.97;2.90;;;;;;;25.09;74.51;96044.75;4965900;28;20212;-76
2022/06/29 09:56:05;;;;;;;4.05;2.88;;;;;;;25.09;73.90;96044.75;4968689;28;20224;-76
2022/06/29 09:58:38;;;;;;;7.22;2.60;;;;;;;25.07;72.99;96048.97;4933927;28;20232;-76
2022/06/29 10:03:55;;;;;;;3.65;2.63;;;;;;;25.17;74.78;96035.63;4951685;28;20283;-77
2022/06/29 10:06:24;;;;;;;3.20;2.60;;;;;;;25.27;71.34;96037.19;4967223;28;20212;-76
2022/06/29 10:08:53;;;;;;;6.60;2.70;;;;;;;25.40;70.52;96032.59;4947834;28;20231;-76
2022/06/29 10:14:26;;;;;;;3.47;2.75;;;;;;;25.69;72.06;96026.28;4969383;28;20293;-77
2022/06/29 10:17:01;;;;;;;3.28;2.70;;;;;;;25.67;70.66;96017.53;4966382;28;20193;-76
2022/06/29 10:19:44;;;;;;;3.38;2.90;;;;;;;25.59;71.97;96020.00;4957301;28;20342;-77
2022/06/29 10:22:13;;;;;;;3.35;2.70;;;;;;;25.52;69.96;96019.66;4961114;28;20217;-76
2022/06/29 10:25:04;;;;;;;4.15;2.60;;;;;;;25.45;68.62;96013.84;4961334;28;20229;-76
2022/06/29 10:27:31;;;;;;;3.75;2.55;;;;;;;25.64;69.71;96021.75;4945499;28;20308;-76
2022/06/29 10:30:21;;;;;;;4.60;2.55;;;;;;;25.86;69.34;96015.91;4963693;28;20209;-77
2022/06/29 10:32:50;;;;;;;3.60;2.60;;;;;;;25.88;68.55;96010.03;4963587;28;20284;-76
2022/06/29 10:35:17;;;;;;;4.53;2.85;;;;;;;25.93;68.01;96013.44;4962924;28;20311;-76
2022/06/29 10:37:51;;;;;;;3.83;2.60;;;;;;;26.03;67.85;96009.44;4968677;28;20208;-76
2022/06/29 10:40:22;;;;;;;2.97;2.70;;;;;;;26.10;66.25;96009.72;4949731;28;20221;-77
2022/06/29 10:45:40;;;;;;;4.13;2.67;;;;;;;26.20;66.67;96006.53;4969689;28;20228;-77
2022/06/29 10:48:20;;;;;;;6.95;3.05;;;;;;;26.26;66.15;96012.72;4956633;28;20259;-77
2022/06/29 10:50:47;;;;;;;4.00;2.50;;;;;;;26.28;66.60;96007.66;4950337;28;20201;-78
2022/06/29 10:53:19;;;;;;;4.72;2.47;;;;;;;26.34;66.39;96001.56;4954202;28;20209;-78
2022/06/29 10:55:51;;;;;;;4.93;2.58;;;;;;;26.29;64.66;95987.13;4953293;28;20229;-79
2022/06/29 10:58:19;;;;;;;3.58;2.70;;;;;;;26.24;65.30;95995.59;4952100;28;20268;-77
2022/06/29 11:00:47;;;;;;;7.28;2.90;;;;;;;26.11;65.59;95988.41;4967701;28;20213;-77
2022/06/29 11:03:17;;;;;;;9.93;3.08;;;;;;;26.07;66.33;95985.50;4946601;28;20213;-77
2022/06/29 11:16:59;;;;;;;3.78;2.60;;;;;;;26.43;66.89;95970.22;4942588;28;20215;-77
2022/06/29 11:19:32;;;;;;;3.13;2.53;;;;;;;26.44;65.87;95977.38;4959420;28;20205;-77
2022/06/29 11:22:15;;;;;;;6.50;3.15;;;;;;;26.52;66.08;95965.41;4951619;28;20209;-77
2022/06/29 11:24:58;;;;;;;4.07;3.00;;;;;;;26.61;66.23;95971.69;4946266;28;20220;-77
2022/06/29 11:27:33;;;;;;;6.75;2.80;;;;;;;26.54;65.63;95946.50;4965193;28;20209;-78
2022/06/29 11:30:00;;;;;;;3.70;3.20;;;;;;;26.51;64.94;95961.84;4968313;28;20196;-77
2022/06/29 11:32:38;;;;;;;4.75;2.72;;;;;;;26.49;67.18;95958.59;4943152;28;20295;-79
2022/06/29 11:35:07;;;;;;;5.03;2.90;;;;;;;26.69;65.79;95963.28;4937970;28;20205;-77
2022/06/29 11:37:34;;;;;;;4.60;3.15;;;;;;;26.92;67.19;95955.38;4954006;28;20208;-77
2022/06/29 11:40:03;;;;;;;6.30;3.13;;;;;;;27.07;63.52;95968.53;4958407;28;20243;-78
2022/06/29 11:45:19;;;;;;;3.83;2.97;;;;;;;27.11;66.88;95949.28;4951146;28;20232;-78
2022/06/29 11:47:53;;;;;;;4.78;3.25;;;;;;;27.13;64.76;95957.25;4963472;28;20228;-77
2022/06/29 11:50:21;;;;;;;3.90;3.10;;;;;;;26.96;63.72;95958.28;4975173;28;20275;-77
2022/06/29 11:52:49;;;;;;;6.18;3.13;;;;;;;26.91;66.36;95953.75;4948881;28;20213;-77
2022/06/29 11:55:42;;;;;;;5.82;3.38;;;;;;;27.21;65.32;95959.09;4942789;28;20280;-77
2022/06/29 11:58:14;;;;;;;4.03;2.97;;;;;;;27.38;63.31;95956.09;4952029;28;20248;-77
2022/06/29 12:00:43;;;;;;;5.90;3.33;;;;;;;27.72;63.51;95954.81;4949598;28;20201;-77
2022/06/29 12:03:14;;;;;;;4.22;3.17;;;;;;;27.72;63.42;95940.94;4946086;28;20204;-77